sensor_id;sensor_type;location;lat;lon;timestamp;temperature;humidity
17208;DHT22;8720;48.488;9.202;2024-02-23T00:00:01;9.60;52.90
17208;DHT22;8720;48.488;9.202;2024-02-23T00:02:31;9.50;53.20
17208;DHT22;8720;48.488;9.202;2024-02-23T00:04:58;9.30;53.60
17208;DHT22;8720;48.488;9.202;2024-02-23T00:07:26;9.20;53.80
17208;DHT22;8720;48.488;9.202;2024-02-23T00:09:53;9.10;53.90
17208;DHT22;8720;48.488;9.202;2024-02-23T00:12:22;9.00;54.00
17208;DHT22;8720;48.488;9.202;2024-02-23T00:14:49;8.90;54.30
17208;DHT22;8720;48.488;9.202;2024-02-23T00:17:17;8.90;54.60
17208;DHT22;8720;48.488;9.202;2024-02-23T00:19:45;8.80;54.70
17208;DHT22;8720;48.488;9.202;2024-02-23T00:22:13;8.70;54.80
17208;DHT22;8720;48.488;9.202;2024-02-23T00:24:40;8.70;55.40
17208;DHT22;8720;48.488;9.202;2024-02-23T00:27:07;8.60;54.80
17208;DHT22;8720;48.488;9.202;2024-02-23T00:29:36;8.60;55.00
17208;DHT22;8720;48.488;9.202;2024-02-23T00:32:04;8.50;54.90
17208;DHT22;8720;48.488;9.202;2024-02-23T00:34:32;8.40;54.80
17208;DHT22;8720;48.488;9.202;2024-02-23T00:37:00;8.40;54.80
17208;DHT22;8720;48.488;9.202;2024-02-23T00:39:27;8.30;54.80
17208;DHT22;8720;48.488;9.202;2024-02-23T00:41:55;8.20;54.70
17208;DHT22;8720;48.488;9.202;2024-02-23T00:44:22;8.20;54.80
17208;DHT22;8720;48.488;9.202;2024-02-23T00:46:51;8.10;54.90
17208;DHT22;8720;48.488;9.202;2024-02-23T00:49:18;8.00;55.10
17208;DHT22;8720;48.488;9.202;2024-02-23T00:51:45;7.90;55.10
17208;DHT22;8720;48.488;9.202;2024-02-23T00:54:13;7.90;55.10
17208;DHT22;8720;48.488;9.202;2024-02-23T00:56:40;7.80;55.10
17208;DHT22;8720;48.488;9.202;2024-02-23T00:59:07;7.80;55.20
17208;DHT22;8720;48.488;9.202;2024-02-23T01:01:35;7.70;55.30
17208;DHT22;8720;48.488;9.202;2024-02-23T01:04:04;7.60;55.40
17208;DHT22;8720;48.488;9.202;2024-02-23T01:06:31;7.60;55.50
17208;DHT22;8720;48.488;9.202;2024-02-23T01:08:58;7.60;55.60
17208;DHT22;8720;48.488;9.202;2024-02-23T01:11:25;7.50;55.60
17208;DHT22;8720;48.488;9.202;2024-02-23T01:13:53;7.50;55.70
17208;DHT22;8720;48.488;9.202;2024-02-23T01:16:20;7.50;55.80
17208;DHT22;8720;48.488;9.202;2024-02-23T01:18:47;7.50;55.90
17208;DHT22;8720;48.488;9.202;2024-02-23T01:21:16;7.50;56.00
17208;DHT22;8720;48.488;9.202;2024-02-23T01:23:44;7.40;56.00
17208;DHT22;8720;48.488;9.202;2024-02-23T01:26:11;7.40;56.10
17208;DHT22;8720;48.488;9.202;2024-02-23T01:28:39;7.40;56.90
17208;DHT22;8720;48.488;9.202;2024-02-23T01:31:08;7.40;56.30
17208;DHT22;8720;48.488;9.202;2024-02-23T01:33:37;7.40;56.40
17208;DHT22;8720;48.488;9.202;2024-02-23T01:36:05;7.40;56.40
17208;DHT22;8720;48.488;9.202;2024-02-23T01:38:34;7.40;56.40
17208;DHT22;8720;48.488;9.202;2024-02-23T01:41:02;7.40;56.40
17208;DHT22;8720;48.488;9.202;2024-02-23T01:43:29;7.40;56.50
17208;DHT22;8720;48.488;9.202;2024-02-23T01:45:57;7.40;56.60
17208;DHT22;8720;48.488;9.202;2024-02-23T01:48:25;7.40;56.70
17208;DHT22;8720;48.488;9.202;2024-02-23T01:50:54;7.40;56.70
17208;DHT22;8720;48.488;9.202;2024-02-23T01:53:22;7.40;57.20
17208;DHT22;8720;48.488;9.202;2024-02-23T01:55:53;7.40;56.60
17208;DHT22;8720;48.488;9.202;2024-02-23T01:58:21;7.40;56.70
17208;DHT22;8720;48.488;9.202;2024-02-23T02:00:49;7.40;56.70
17208;DHT22;8720;48.488;9.202;2024-02-23T02:03:16;7.40;56.70
17208;DHT22;8720;48.488;9.202;2024-02-23T02:05:43;7.50;56.70
17208;DHT22;8720;48.488;9.202;2024-02-23T02:08:12;7.50;56.60
17208;DHT22;8720;48.488;9.202;2024-02-23T02:10:39;7.50;56.50
17208;DHT22;8720;48.488;9.202;2024-02-23T02:13:09;7.50;56.50
17208;DHT22;8720;48.488;9.202;2024-02-23T02:15:36;7.50;56.50
17208;DHT22;8720;48.488;9.202;2024-02-23T02:18:04;7.50;56.50
17208;DHT22;8720;48.488;9.202;2024-02-23T02:20:33;7.50;56.60
17208;DHT22;8720;48.488;9.202;2024-02-23T02:23:02;7.50;56.40
17208;DHT22;8720;48.488;9.202;2024-02-23T02:25:30;7.50;56.30
17208;DHT22;8720;48.488;9.202;2024-02-23T02:27:57;7.50;56.30
17208;DHT22;8720;48.488;9.202;2024-02-23T02:30:26;7.50;56.30
17208;DHT22;8720;48.488;9.202;2024-02-23T02:32:53;7.60;56.40
17208;DHT22;8720;48.488;9.202;2024-02-23T02:35:20;7.60;56.40
17208;DHT22;8720;48.488;9.202;2024-02-23T02:37:48;7.60;56.20
17208;DHT22;8720;48.488;9.202;2024-02-23T02:40:15;7.70;56.10
17208;DHT22;8720;48.488;9.202;2024-02-23T02:42:42;7.60;55.90
17208;DHT22;8720;48.488;9.202;2024-02-23T02:45:10;7.70;55.90
17208;DHT22;8720;48.488;9.202;2024-02-23T02:47:38;7.70;55.80
17208;DHT22;8720;48.488;9.202;2024-02-23T02:50:06;7.70;55.70
17208;DHT22;8720;48.488;9.202;2024-02-23T02:52:33;7.80;55.70
17208;DHT22;8720;48.488;9.202;2024-02-23T02:55:01;7.80;55.60
17208;DHT22;8720;48.488;9.202;2024-02-23T02:57:28;7.80;55.60
17208;DHT22;8720;48.488;9.202;2024-02-23T02:59:56;7.80;55.50
17208;DHT22;8720;48.488;9.202;2024-02-23T03:02:23;7.80;55.30
17208;DHT22;8720;48.488;9.202;2024-02-23T03:04:52;7.80;55.20
17208;DHT22;8720;48.488;9.202;2024-02-23T03:07:21;7.90;55.10
17208;DHT22;8720;48.488;9.202;2024-02-23T03:09:48;7.90;55.10
17208;DHT22;8720;48.488;9.202;2024-02-23T03:12:16;7.90;55.00
17208;DHT22;8720;48.488;9.202;2024-02-23T03:14:44;7.80;54.80
17208;DHT22;8720;48.488;9.202;2024-02-23T03:17:11;7.80;54.70
17208;DHT22;8720;48.488;9.202;2024-02-23T03:19:39;7.90;54.70
17208;DHT22;8720;48.488;9.202;2024-02-23T03:22:07;7.80;54.50
17208;DHT22;8720;48.488;9.202;2024-02-23T03:24:35;7.90;54.30
17208;DHT22;8720;48.488;9.202;2024-02-23T03:27:03;7.90;54.20
17208;DHT22;8720;48.488;9.202;2024-02-23T03:29:30;7.90;54.20
17208;DHT22;8720;48.488;9.202;2024-02-23T03:31:58;7.90;54.20
17208;DHT22;8720;48.488;9.202;2024-02-23T03:34:27;7.90;54.20
17208;DHT22;8720;48.488;9.202;2024-02-23T03:36:54;7.90;54.20
17208;DHT22;8720;48.488;9.202;2024-02-23T03:39:23;7.90;54.10
17208;DHT22;8720;48.488;9.202;2024-02-23T03:41:50;7.90;53.90
17208;DHT22;8720;48.488;9.202;2024-02-23T03:44:18;7.90;54.00
17208;DHT22;8720;48.488;9.202;2024-02-23T03:46:45;7.90;53.90
17208;DHT22;8720;48.488;9.202;2024-02-23T03:49:12;7.90;53.70
17208;DHT22;8720;48.488;9.202;2024-02-23T03:51:40;7.90;53.70
17208;DHT22;8720;48.488;9.202;2024-02-23T03:54:07;7.80;53.60
17208;DHT22;8720;48.488;9.202;2024-02-23T03:56:39;7.80;53.60
17208;DHT22;8720;48.488;9.202;2024-02-23T03:59:08;7.80;53.50
17208;DHT22;8720;48.488;9.202;2024-02-23T04:01:36;7.80;53.50
17208;DHT22;8720;48.488;9.202;2024-02-23T04:04:04;7.80;53.50
17208;DHT22;8720;48.488;9.202;2024-02-23T04:06:31;7.80;53.50
17208;DHT22;8720;48.488;9.202;2024-02-23T04:09:00;7.90;53.50
17208;DHT22;8720;48.488;9.202;2024-02-23T04:11:30;7.80;53.40
17208;DHT22;8720;48.488;9.202;2024-02-23T04:13:59;7.80;54.10
17208;DHT22;8720;48.488;9.202;2024-02-23T04:16:27;7.80;53.50
17208;DHT22;8720;48.488;9.202;2024-02-23T04:18:54;7.80;53.50
17208;DHT22;8720;48.488;9.202;2024-02-23T04:21:22;7.80;53.50
17208;DHT22;8720;48.488;9.202;2024-02-23T04:23:50;7.80;53.40
17208;DHT22;8720;48.488;9.202;2024-02-23T04:26:17;7.80;53.40
17208;DHT22;8720;48.488;9.202;2024-02-23T04:28:45;7.80;53.40
17208;DHT22;8720;48.488;9.202;2024-02-23T04:31:13;7.80;53.40
17208;DHT22;8720;48.488;9.202;2024-02-23T04:33:41;7.80;53.40
17208;DHT22;8720;48.488;9.202;2024-02-23T04:36:08;7.80;53.50
17208;DHT22;8720;48.488;9.202;2024-02-23T04:38:36;7.80;53.40
17208;DHT22;8720;48.488;9.202;2024-02-23T04:41:04;7.80;53.30
17208;DHT22;8720;48.488;9.202;2024-02-23T04:43:32;7.80;53.30
17208;DHT22;8720;48.488;9.202;2024-02-23T04:46:00;7.80;53.30
17208;DHT22;8720;48.488;9.202;2024-02-23T04:48:29;7.70;53.30
17208;DHT22;8720;48.488;9.202;2024-02-23T04:50:57;7.70;53.40
17208;DHT22;8720;48.488;9.202;2024-02-23T04:53:24;7.70;53.40
17208;DHT22;8720;48.488;9.202;2024-02-23T04:55:52;7.70;53.40
17208;DHT22;8720;48.488;9.202;2024-02-23T04:58:19;7.70;53.50
17208;DHT22;8720;48.488;9.202;2024-02-23T05:00:51;7.70;53.40
17208;DHT22;8720;48.488;9.202;2024-02-23T05:03:19;7.70;53.30
17208;DHT22;8720;48.488;9.202;2024-02-23T05:05:48;7.70;53.30
17208;DHT22;8720;48.488;9.202;2024-02-23T05:08:19;7.70;53.30
17208;DHT22;8720;48.488;9.202;2024-02-23T05:10:47;7.70;53.20
17208;DHT22;8720;48.488;9.202;2024-02-23T05:13:14;7.60;53.10
17208;DHT22;8720;48.488;9.202;2024-02-23T05:15:41;7.60;53.20
17208;DHT22;8720;48.488;9.202;2024-02-23T05:18:09;7.60;53.20
17208;DHT22;8720;48.488;9.202;2024-02-23T05:20:36;7.60;53.20
17208;DHT22;8720;48.488;9.202;2024-02-23T05:23:05;7.60;53.30
17208;DHT22;8720;48.488;9.202;2024-02-23T05:25:32;7.60;53.30
17208;DHT22;8720;48.488;9.202;2024-02-23T05:27:59;7.60;53.20
17208;DHT22;8720;48.488;9.202;2024-02-23T05:30:27;7.60;53.20
17208;DHT22;8720;48.488;9.202;2024-02-23T05:32:57;7.60;53.20
17208;DHT22;8720;48.488;9.202;2024-02-23T05:35:25;7.60;53.20
17208;DHT22;8720;48.488;9.202;2024-02-23T05:37:53;7.60;53.40
17208;DHT22;8720;48.488;9.202;2024-02-23T05:40:22;7.60;53.40
17208;DHT22;8720;48.488;9.202;2024-02-23T05:42:49;7.50;53.30
17208;DHT22;8720;48.488;9.202;2024-02-23T05:45:17;7.50;53.30
17208;DHT22;8720;48.488;9.202;2024-02-23T05:47:44;7.50;53.20
17208;DHT22;8720;48.488;9.202;2024-02-23T05:50:12;7.50;53.10
17208;DHT22;8720;48.488;9.202;2024-02-23T05:52:39;7.50;53.00
17208;DHT22;8720;48.488;9.202;2024-02-23T05:55:07;7.50;53.00
17208;DHT22;8720;48.488;9.202;2024-02-23T05:57:36;7.50;53.00
17208;DHT22;8720;48.488;9.202;2024-02-23T06:00:04;7.50;53.00
17208;DHT22;8720;48.488;9.202;2024-02-23T06:02:39;7.50;53.00
17208;DHT22;8720;48.488;9.202;2024-02-23T06:05:07;7.50;52.90
17208;DHT22;8720;48.488;9.202;2024-02-23T06:07:34;7.40;52.60
17208;DHT22;8720;48.488;9.202;2024-02-23T06:10:02;7.40;52.60
17208;DHT22;8720;48.488;9.202;2024-02-23T06:12:30;7.40;52.50
17208;DHT22;8720;48.488;9.202;2024-02-23T06:14:59;7.40;52.30
17208;DHT22;8720;48.488;9.202;2024-02-23T06:17:27;7.40;52.30
17208;DHT22;8720;48.488;9.202;2024-02-23T06:19:54;7.40;52.30
17208;DHT22;8720;48.488;9.202;2024-02-23T06:22:23;7.40;52.30
17208;DHT22;8720;48.488;9.202;2024-02-23T06:24:51;7.40;52.10
17208;DHT22;8720;48.488;9.202;2024-02-23T06:27:18;7.40;51.90
17208;DHT22;8720;48.488;9.202;2024-02-23T06:29:48;7.40;52.60
17208;DHT22;8720;48.488;9.202;2024-02-23T06:32:17;7.30;52.40
17208;DHT22;8720;48.488;9.202;2024-02-23T06:34:44;7.30;51.70
17208;DHT22;8720;48.488;9.202;2024-02-23T06:37:12;7.30;51.70
17208;DHT22;8720;48.488;9.202;2024-02-23T06:39:39;7.30;51.70
17208;DHT22;8720;48.488;9.202;2024-02-23T06:42:07;7.40;51.60
17208;DHT22;8720;48.488;9.202;2024-02-23T06:44:34;7.40;51.40
17208;DHT22;8720;48.488;9.202;2024-02-23T06:47:02;7.40;51.40
17208;DHT22;8720;48.488;9.202;2024-02-23T06:49:30;7.50;51.40
17208;DHT22;8720;48.488;9.202;2024-02-23T06:51:58;7.50;51.20
17208;DHT22;8720;48.488;9.202;2024-02-23T06:54:25;7.50;51.20
17208;DHT22;8720;48.488;9.202;2024-02-23T06:56:52;7.50;51.20
17208;DHT22;8720;48.488;9.202;2024-02-23T06:59:20;7.50;51.20
17208;DHT22;8720;48.488;9.202;2024-02-23T07:01:50;7.60;51.30
17208;DHT22;8720;48.488;9.202;2024-02-23T07:04:18;7.60;51.40
17208;DHT22;8720;48.488;9.202;2024-02-23T07:06:47;7.60;51.30
17208;DHT22;8720;48.488;9.202;2024-02-23T07:09:14;7.60;51.20
17208;DHT22;8720;48.488;9.202;2024-02-23T07:11:41;7.60;51.10
17208;DHT22;8720;48.488;9.202;2024-02-23T07:14:09;7.60;50.90
17208;DHT22;8720;48.488;9.202;2024-02-23T07:16:38;7.60;50.70
17208;DHT22;8720;48.488;9.202;2024-02-23T07:19:07;7.60;50.70
17208;DHT22;8720;48.488;9.202;2024-02-23T07:21:35;7.70;50.60
17208;DHT22;8720;48.488;9.202;2024-02-23T07:24:04;7.70;50.50
17208;DHT22;8720;48.488;9.202;2024-02-23T07:26:32;7.70;50.50
17208;DHT22;8720;48.488;9.202;2024-02-23T07:28:59;7.70;50.40
17208;DHT22;8720;48.488;9.202;2024-02-23T07:31:27;7.70;50.20
17208;DHT22;8720;48.488;9.202;2024-02-23T07:33:54;7.70;50.00
17208;DHT22;8720;48.488;9.202;2024-02-23T07:36:22;7.80;50.10
17208;DHT22;8720;48.488;9.202;2024-02-23T07:38:49;7.80;50.20
17208;DHT22;8720;48.488;9.202;2024-02-23T07:41:18;7.80;50.20
17208;DHT22;8720;48.488;9.202;2024-02-23T07:43:45;7.90;50.10
17208;DHT22;8720;48.488;9.202;2024-02-23T07:46:12;7.90;50.20
17208;DHT22;8720;48.488;9.202;2024-02-23T07:48:40;8.00;50.30
17208;DHT22;8720;48.488;9.202;2024-02-23T07:51:07;8.00;50.10
17208;DHT22;8720;48.488;9.202;2024-02-23T07:53:34;8.10;50.00
17208;DHT22;8720;48.488;9.202;2024-02-23T07:56:02;8.10;49.90
17208;DHT22;8720;48.488;9.202;2024-02-23T07:58:31;8.20;50.00
17208;DHT22;8720;48.488;9.202;2024-02-23T08:00:59;8.20;49.60
17208;DHT22;8720;48.488;9.202;2024-02-23T08:03:26;8.30;49.60
17208;DHT22;8720;48.488;9.202;2024-02-23T08:05:53;8.30;49.30
17208;DHT22;8720;48.488;9.202;2024-02-23T08:08:21;8.40;49.20
17208;DHT22;8720;48.488;9.202;2024-02-23T08:10:49;8.40;49.10
17208;DHT22;8720;48.488;9.202;2024-02-23T08:13:17;8.40;48.90
17208;DHT22;8720;48.488;9.202;2024-02-23T08:15:46;8.50;48.80
17208;DHT22;8720;48.488;9.202;2024-02-23T08:18:13;8.50;48.70
17208;DHT22;8720;48.488;9.202;2024-02-23T08:20:41;8.50;48.70
17208;DHT22;8720;48.488;9.202;2024-02-23T08:23:08;8.50;48.50
17208;DHT22;8720;48.488;9.202;2024-02-23T08:25:37;8.60;48.60
17208;DHT22;8720;48.488;9.202;2024-02-23T08:28:05;8.60;48.30
17208;DHT22;8720;48.488;9.202;2024-02-23T08:30:33;8.60;48.20
17208;DHT22;8720;48.488;9.202;2024-02-23T08:33:02;8.70;48.40
17208;DHT22;8720;48.488;9.202;2024-02-23T08:35:29;8.70;48.20
17208;DHT22;8720;48.488;9.202;2024-02-23T08:37:58;8.70;48.20
17208;DHT22;8720;48.488;9.202;2024-02-23T08:40:25;8.80;48.40
17208;DHT22;8720;48.488;9.202;2024-02-23T08:42:53;8.80;48.50
17208;DHT22;8720;48.488;9.202;2024-02-23T08:45:21;8.90;48.20
17208;DHT22;8720;48.488;9.202;2024-02-23T08:47:48;8.90;48.10
17208;DHT22;8720;48.488;9.202;2024-02-23T08:50:17;9.00;48.00
17208;DHT22;8720;48.488;9.202;2024-02-23T08:52:45;9.00;47.80
17208;DHT22;8720;48.488;9.202;2024-02-23T08:55:12;9.10;47.80
17208;DHT22;8720;48.488;9.202;2024-02-23T08:57:40;9.10;47.60
17208;DHT22;8720;48.488;9.202;2024-02-23T09:00:09;9.20;47.70
17208;DHT22;8720;48.488;9.202;2024-02-23T09:02:37;9.20;47.90
17208;DHT22;8720;48.488;9.202;2024-02-23T09:05:06;9.20;47.90
17208;DHT22;8720;48.488;9.202;2024-02-23T09:07:35;9.30;47.90
17208;DHT22;8720;48.488;9.202;2024-02-23T09:10:03;9.30;47.70
17208;DHT22;8720;48.488;9.202;2024-02-23T09:12:31;9.30;47.70
17208;DHT22;8720;48.488;9.202;2024-02-23T09:14:58;9.30;47.70
17208;DHT22;8720;48.488;9.202;2024-02-23T09:17:26;9.40;47.80
17208;DHT22;8720;48.488;9.202;2024-02-23T09:19:53;9.30;47.70
17208;DHT22;8720;48.488;9.202;2024-02-23T09:22:20;9.40;47.90
17208;DHT22;8720;48.488;9.202;2024-02-23T09:24:50;9.40;47.90
17208;DHT22;8720;48.488;9.202;2024-02-23T09:27:19;9.50;47.80
17208;DHT22;8720;48.488;9.202;2024-02-23T09:29:47;9.50;47.70
17208;DHT22;8720;48.488;9.202;2024-02-23T09:32:14;9.50;47.20
17208;DHT22;8720;48.488;9.202;2024-02-23T09:34:42;9.50;46.90
17208;DHT22;8720;48.488;9.202;2024-02-23T09:37:09;9.60;47.00
17208;DHT22;8720;48.488;9.202;2024-02-23T09:39:37;9.60;47.10
17208;DHT22;8720;48.488;9.202;2024-02-23T09:42:09;9.70;47.00
17208;DHT22;8720;48.488;9.202;2024-02-23T09:44:37;9.70;46.20
17208;DHT22;8720;48.488;9.202;2024-02-23T09:47:06;9.80;46.50
17208;DHT22;8720;48.488;9.202;2024-02-23T09:49:38;9.80;46.30
17208;DHT22;8720;48.488;9.202;2024-02-23T09:52:07;9.90;45.90
17208;DHT22;8720;48.488;9.202;2024-02-23T09:54:37;9.90;46.10
17208;DHT22;8720;48.488;9.202;2024-02-23T09:57:07;10.00;44.80
17208;DHT22;8720;48.488;9.202;2024-02-23T09:59:36;10.10;44.70
17208;DHT22;8720;48.488;9.202;2024-02-23T10:02:07;10.10;44.70
17208;DHT22;8720;48.488;9.202;2024-02-23T10:04:37;10.20;44.50
17208;DHT22;8720;48.488;9.202;2024-02-23T10:07:06;10.20;44.70
17208;DHT22;8720;48.488;9.202;2024-02-23T10:09:33;10.30;45.40
17208;DHT22;8720;48.488;9.202;2024-02-23T10:12:01;10.30;44.70
17208;DHT22;8720;48.488;9.202;2024-02-23T10:14:30;10.40;44.70
17208;DHT22;8720;48.488;9.202;2024-02-23T10:16:57;10.40;44.60
17208;DHT22;8720;48.488;9.202;2024-02-23T10:19:25;10.50;44.70
17208;DHT22;8720;48.488;9.202;2024-02-23T10:21:55;10.60;44.40
17208;DHT22;8720;48.488;9.202;2024-02-23T10:24:23;10.60;44.40
17208;DHT22;8720;48.488;9.202;2024-02-23T10:26:51;10.60;44.20
17208;DHT22;8720;48.488;9.202;2024-02-23T10:29:19;10.70;44.10
17208;DHT22;8720;48.488;9.202;2024-02-23T10:31:48;10.80;44.10
17208;DHT22;8720;48.488;9.202;2024-02-23T10:34:19;10.80;43.60
17208;DHT22;8720;48.488;9.202;2024-02-23T10:36:47;10.90;43.60
17208;DHT22;8720;48.488;9.202;2024-02-23T10:39:17;10.90;43.80
17208;DHT22;8720;48.488;9.202;2024-02-23T10:41:50;11.00;43.40
17208;DHT22;8720;48.488;9.202;2024-02-23T10:44:24;11.00;43.30
17208;DHT22;8720;48.488;9.202;2024-02-23T10:46:55;11.10;43.50
17208;DHT22;8720;48.488;9.202;2024-02-23T10:49:25;11.10;43.40
17208;DHT22;8720;48.488;9.202;2024-02-23T10:51:54;11.10;43.50
17208;DHT22;8720;48.488;9.202;2024-02-23T10:54:22;11.20;44.00
17208;DHT22;8720;48.488;9.202;2024-02-23T10:56:50;11.20;43.20
17208;DHT22;8720;48.488;9.202;2024-02-23T10:59:19;11.30;43.10
17208;DHT22;8720;48.488;9.202;2024-02-23T11:01:49;11.30;43.00
17208;DHT22;8720;48.488;9.202;2024-02-23T11:04:21;11.40;42.80
17208;DHT22;8720;48.488;9.202;2024-02-23T11:06:50;11.50;42.40
17208;DHT22;8720;48.488;9.202;2024-02-23T11:09:21;11.50;42.70
17208;DHT22;8720;48.488;9.202;2024-02-23T11:11:53;11.50;42.30
17208;DHT22;8720;48.488;9.202;2024-02-23T11:14:31;11.50;42.50
17208;DHT22;8720;48.488;9.202;2024-02-23T11:17:00;11.50;42.30
17208;DHT22;8720;48.488;9.202;2024-02-23T11:19:36;11.50;42.90
17208;DHT22;8720;48.488;9.202;2024-02-23T11:22:09;11.50;42.30
17208;DHT22;8720;48.488;9.202;2024-02-23T11:24:42;11.50;42.60
17208;DHT22;8720;48.488;9.202;2024-02-23T11:27:14;11.40;42.40
17208;DHT22;8720;48.488;9.202;2024-02-23T11:29:45;11.40;42.50
17208;DHT22;8720;48.488;9.202;2024-02-23T11:32:15;11.30;42.50
17208;DHT22;8720;48.488;9.202;2024-02-23T11:34:55;11.30;42.70
17208;DHT22;8720;48.488;9.202;2024-02-23T11:37:23;11.20;42.60
17208;DHT22;8720;48.488;9.202;2024-02-23T11:39:51;11.10;42.70
17208;DHT22;8720;48.488;9.202;2024-02-23T11:42:19;11.10;42.90
17208;DHT22;8720;48.488;9.202;2024-02-23T11:44:50;11.10;43.10
17208;DHT22;8720;48.488;9.202;2024-02-23T11:47:20;11.10;43.30
17208;DHT22;8720;48.488;9.202;2024-02-23T11:49:47;11.10;43.50
17208;DHT22;8720;48.488;9.202;2024-02-23T11:52:16;11.10;43.30
17208;DHT22;8720;48.488;9.202;2024-02-23T11:54:44;11.10;43.00
17208;DHT22;8720;48.488;9.202;2024-02-23T11:57:12;11.10;43.30
17208;DHT22;8720;48.488;9.202;2024-02-23T11:59:40;11.10;43.50
17208;DHT22;8720;48.488;9.202;2024-02-23T12:02:07;11.10;43.40
17208;DHT22;8720;48.488;9.202;2024-02-23T12:04:35;11.10;43.50
17208;DHT22;8720;48.488;9.202;2024-02-23T12:07:03;11.10;43.80
17208;DHT22;8720;48.488;9.202;2024-02-23T12:09:32;11.10;43.70
17208;DHT22;8720;48.488;9.202;2024-02-23T12:12:00;11.10;43.70
17208;DHT22;8720;48.488;9.202;2024-02-23T12:14:27;11.20;43.80
17208;DHT22;8720;48.488;9.202;2024-02-23T12:16:57;11.20;43.90
17208;DHT22;8720;48.488;9.202;2024-02-23T12:19:24;11.20;43.70
17208;DHT22;8720;48.488;9.202;2024-02-23T12:21:52;11.30;43.80
17208;DHT22;8720;48.488;9.202;2024-02-23T12:24:20;11.30;44.00
17208;DHT22;8720;48.488;9.202;2024-02-23T12:26:54;11.30;43.90
17208;DHT22;8720;48.488;9.202;2024-02-23T12:29:22;11.40;43.50
17208;DHT22;8720;48.488;9.202;2024-02-23T12:31:49;11.40;43.60
17208;DHT22;8720;48.488;9.202;2024-02-23T12:34:17;11.40;43.40
17208;DHT22;8720;48.488;9.202;2024-02-23T12:36:46;11.50;43.60
17208;DHT22;8720;48.488;9.202;2024-02-23T12:39:14;11.50;43.50
17208;DHT22;8720;48.488;9.202;2024-02-23T12:41:41;11.60;43.50
17208;DHT22;8720;48.488;9.202;2024-02-23T12:44:10;11.60;43.40
17208;DHT22;8720;48.488;9.202;2024-02-23T12:46:38;11.60;43.20
17208;DHT22;8720;48.488;9.202;2024-02-23T12:49:05;11.60;43.20
17208;DHT22;8720;48.488;9.202;2024-02-23T12:51:33;11.60;43.20
17208;DHT22;8720;48.488;9.202;2024-02-23T12:54:00;11.70;43.10
17208;DHT22;8720;48.488;9.202;2024-02-23T12:56:28;11.70;42.90
17208;DHT22;8720;48.488;9.202;2024-02-23T12:58:56;11.70;43.00
17208;DHT22;8720;48.488;9.202;2024-02-23T13:01:25;11.70;43.20
17208;DHT22;8720;48.488;9.202;2024-02-23T13:03:52;11.70;43.70
17208;DHT22;8720;48.488;9.202;2024-02-23T13:06:20;11.70;42.90
17208;DHT22;8720;48.488;9.202;2024-02-23T13:08:48;11.70;42.80
17208;DHT22;8720;48.488;9.202;2024-02-23T13:11:15;11.70;42.70
17208;DHT22;8720;48.488;9.202;2024-02-23T13:13:43;11.80;42.70
17208;DHT22;8720;48.488;9.202;2024-02-23T13:16:10;11.80;42.70
17208;DHT22;8720;48.488;9.202;2024-02-23T13:18:42;11.70;42.30
17208;DHT22;8720;48.488;9.202;2024-02-23T13:21:09;11.70;42.30
17208;DHT22;8720;48.488;9.202;2024-02-23T13:23:37;11.70;42.60
17208;DHT22;8720;48.488;9.202;2024-02-23T13:26:06;11.70;42.60
17208;DHT22;8720;48.488;9.202;2024-02-23T13:28:33;11.70;42.60
17208;DHT22;8720;48.488;9.202;2024-02-23T13:31:00;11.70;42.40
17208;DHT22;8720;48.488;9.202;2024-02-23T13:33:28;11.70;42.50
17208;DHT22;8720;48.488;9.202;2024-02-23T13:35:57;11.70;42.70
17208;DHT22;8720;48.488;9.202;2024-02-23T13:38:24;11.70;43.20
17208;DHT22;8720;48.488;9.202;2024-02-23T13:40:52;11.80;42.80
17208;DHT22;8720;48.488;9.202;2024-02-23T13:43:20;11.70;42.50
17208;DHT22;8720;48.488;9.202;2024-02-23T13:45:49;11.80;42.60
17208;DHT22;8720;48.488;9.202;2024-02-23T13:48:18;11.70;42.50
17208;DHT22;8720;48.488;9.202;2024-02-23T13:50:46;11.70;42.60
17208;DHT22;8720;48.488;9.202;2024-02-23T13:53:15;11.80;42.70
17208;DHT22;8720;48.488;9.202;2024-02-23T13:55:43;11.80;42.60
17208;DHT22;8720;48.488;9.202;2024-02-23T13:58:11;11.80;42.60
17208;DHT22;8720;48.488;9.202;2024-02-23T14:00:38;11.80;42.50
17208;DHT22;8720;48.488;9.202;2024-02-23T14:03:06;11.80;42.50
17208;DHT22;8720;48.488;9.202;2024-02-23T14:05:34;11.80;42.40
17208;DHT22;8720;48.488;9.202;2024-02-23T14:08:02;11.80;42.30
17208;DHT22;8720;48.488;9.202;2024-02-23T14:10:32;11.80;42.10
17208;DHT22;8720;48.488;9.202;2024-02-23T14:13:00;11.80;41.90
17208;DHT22;8720;48.488;9.202;2024-02-23T14:15:27;11.80;42.00
17208;DHT22;8720;48.488;9.202;2024-02-23T14:17:55;11.80;42.00
17208;DHT22;8720;48.488;9.202;2024-02-23T14:20:23;11.70;41.90
17208;DHT22;8720;48.488;9.202;2024-02-23T14:22:50;11.80;41.90
17208;DHT22;8720;48.488;9.202;2024-02-23T14:25:18;11.80;41.80
17208;DHT22;8720;48.488;9.202;2024-02-23T14:27:47;11.80;41.80
17208;DHT22;8720;48.488;9.202;2024-02-23T14:30:14;11.70;41.70
17208;DHT22;8720;48.488;9.202;2024-02-23T14:32:42;11.80;41.80
17208;DHT22;8720;48.488;9.202;2024-02-23T14:35:10;11.70;41.70
17208;DHT22;8720;48.488;9.202;2024-02-23T14:37:37;11.80;41.60
17208;DHT22;8720;48.488;9.202;2024-02-23T14:40:06;11.80;41.70
17208;DHT22;8720;48.488;9.202;2024-02-23T14:42:34;11.80;41.80
17208;DHT22;8720;48.488;9.202;2024-02-23T14:45:04;11.80;41.60
17208;DHT22;8720;48.488;9.202;2024-02-23T14:47:32;11.80;41.40
17208;DHT22;8720;48.488;9.202;2024-02-23T14:50:00;11.90;42.40
17208;DHT22;8720;48.488;9.202;2024-02-23T14:52:28;11.90;41.80
17208;DHT22;8720;48.488;9.202;2024-02-23T14:54:56;12.00;41.60
17208;DHT22;8720;48.488;9.202;2024-02-23T14:57:23;11.90;41.30
17208;DHT22;8720;48.488;9.202;2024-02-23T14:59:50;12.00;41.50
17208;DHT22;8720;48.488;9.202;2024-02-23T15:02:21;12.00;41.40
17208;DHT22;8720;48.488;9.202;2024-02-23T15:04:49;12.10;41.50
17208;DHT22;8720;48.488;9.202;2024-02-23T15:07:16;12.10;41.50
17208;DHT22;8720;48.488;9.202;2024-02-23T15:09:43;12.10;41.20
17208;DHT22;8720;48.488;9.202;2024-02-23T15:12:11;12.20;41.00
17208;DHT22;8720;48.488;9.202;2024-02-23T15:14:39;12.10;40.80
17208;DHT22;8720;48.488;9.202;2024-02-23T15:17:07;12.10;41.00
17208;DHT22;8720;48.488;9.202;2024-02-23T15:19:36;12.10;40.80
17208;DHT22;8720;48.488;9.202;2024-02-23T15:22:03;12.10;40.60
17208;DHT22;8720;48.488;9.202;2024-02-23T15:24:33;12.10;40.50
17208;DHT22;8720;48.488;9.202;2024-02-23T15:27:01;12.00;40.80
17208;DHT22;8720;48.488;9.202;2024-02-23T15:29:28;12.00;40.90
17208;DHT22;8720;48.488;9.202;2024-02-23T15:31:56;12.10;40.80
17208;DHT22;8720;48.488;9.202;2024-02-23T15:34:23;12.00;40.60
17208;DHT22;8720;48.488;9.202;2024-02-23T15:36:52;12.00;40.10
17208;DHT22;8720;48.488;9.202;2024-02-23T15:39:20;12.00;40.20
17208;DHT22;8720;48.488;9.202;2024-02-23T15:41:47;12.00;40.30
17208;DHT22;8720;48.488;9.202;2024-02-23T15:44:15;11.90;40.20
17208;DHT22;8720;48.488;9.202;2024-02-23T15:46:43;11.90;40.30
17208;DHT22;8720;48.488;9.202;2024-02-23T15:49:11;11.80;40.20
17208;DHT22;8720;48.488;9.202;2024-02-23T15:51:39;11.80;40.50
17208;DHT22;8720;48.488;9.202;2024-02-23T15:54:08;11.70;40.50
17208;DHT22;8720;48.488;9.202;2024-02-23T15:56:35;11.70;40.50
17208;DHT22;8720;48.488;9.202;2024-02-23T15:59:03;11.70;40.70